createdAt,value
2022-09-22T00:02:13.187Z,13.80
2022-09-22T00:07:42.494Z,13.60
2022-09-22T00:13:12.083Z,13.60
2022-09-22T00:16:05.276Z,13.60
2022-09-22T00:18:56.678Z,13.60
2022-09-22T00:21:49.236Z,13.50
2022-09-22T00:24:42.647Z,13.50
2022-09-22T00:27:34.116Z,13.50
2022-09-22T00:30:25.355Z,13.50
2022-09-22T00:33:16.828Z,13.60
2022-09-22T00:36:08.754Z,13.60
2022-09-22T00:39:00.775Z,13.60
2022-09-22T00:44:40.658Z,13.60
2022-09-22T00:47:41.728Z,13.60
2022-09-22T00:50:34.001Z,13.60
2022-09-22T00:53:27.217Z,13.60
2022-09-22T00:59:03.475Z,13.50
2022-09-22T01:04:33.651Z,13.40
2022-09-22T01:07:27.762Z,13.50
2022-09-22T01:13:02.518Z,13.50
2022-09-22T01:16:01.112Z,13.50
2022-09-22T01:18:59.420Z,13.50
2022-09-22T01:21:53.874Z,13.50
2022-09-22T01:27:44.127Z,13.40
2022-09-22T01:30:39.973Z,13.40
2022-09-22T01:33:37.222Z,13.40
2022-09-22T01:36:32.119Z,13.40
2022-09-22T01:39:26.285Z,13.40
2022-09-22T01:42:21.053Z,13.30
2022-09-22T01:47:55.686Z,13.30
2022-09-22T01:50:50.559Z,13.30
2022-09-22T01:53:44.982Z,13.20
2022-09-22T01:56:38.506Z,13.20
2022-09-22T01:59:32.083Z,13.20
2022-09-22T02:02:26.437Z,13.20
2022-09-22T02:05:21.158Z,13.20
2022-09-22T02:08:17.140Z,13.10
2022-09-22T02:11:12.312Z,13.20
2022-09-22T02:14:04.728Z,13.20
2022-09-22T02:16:57.332Z,13.10
2022-09-22T02:19:48.761Z,13.10
2022-09-22T02:22:41.274Z,13.10
2022-09-22T02:28:13.498Z,13.00
2022-09-22T02:33:43.614Z,12.90
2022-09-22T02:36:50.248Z,12.90
2022-09-22T02:39:44.619Z,13.00
2022-09-22T02:42:38.944Z,13.00
2022-09-22T02:48:11.101Z,12.90
2022-09-22T02:51:02.969Z,12.90
2022-09-22T02:53:54.531Z,12.90
2022-09-22T02:56:46.083Z,12.90
2022-09-22T02:59:37.431Z,12.90
2022-09-22T03:02:28.927Z,12.90
2022-09-22T03:07:59.692Z,12.90
2022-09-22T03:10:50.885Z,12.90
2022-09-22T03:13:42.016Z,12.80
2022-09-22T03:16:33.397Z,12.80
2022-09-22T03:19:24.896Z,12.80
2022-09-22T03:22:16.926Z,12.80
2022-09-22T03:27:48.721Z,12.70
2022-09-22T03:30:40.665Z,12.60
2022-09-22T03:33:32.791Z,12.60
2022-09-22T03:36:24.249Z,12.60
2022-09-22T03:39:15.648Z,12.70
2022-09-22T03:42:07.580Z,12.60
2022-09-22T03:44:59.091Z,12.60
2022-09-22T03:50:30.103Z,12.70
2022-09-22T03:53:21.789Z,12.60
2022-09-22T03:56:15.864Z,12.60
2022-09-22T03:59:07.712Z,12.60
2022-09-22T04:02:00.884Z,12.50
2022-09-22T04:07:32.293Z,12.40
2022-09-22T04:10:23.627Z,12.40
2022-09-22T04:13:15.534Z,12.50
2022-09-22T04:16:07.664Z,12.40
2022-09-22T04:18:59.376Z,12.30
2022-09-22T04:21:56.159Z,12.30
2022-09-22T04:24:43.340Z,12.30
2022-09-22T04:27:35.139Z,12.20
2022-09-22T04:30:26.625Z,12.20
2022-09-22T04:33:18.545Z,12.10
2022-09-22T04:36:10.356Z,12.10
2022-09-22T04:39:03.428Z,12.00
2022-09-22T04:41:54.396Z,12.00
2022-09-22T04:44:46.588Z,12.00
2022-09-22T04:47:37.802Z,12.00
2022-09-22T04:50:29.522Z,12.00
2022-09-22T04:53:20.884Z,12.00
2022-09-22T04:56:12.203Z,12.00
2022-09-22T04:59:04.086Z,12.00
2022-09-22T05:01:55.599Z,11.90
2022-09-22T05:04:47.177Z,11.90
2022-09-22T05:07:40.026Z,11.90
2022-09-22T05:10:32.492Z,11.90
2022-09-22T05:13:24.181Z,12.00
2022-09-22T05:16:15.615Z,12.00
2022-09-22T05:19:07.252Z,11.90
2022-09-22T05:21:58.656Z,11.90
2022-09-22T05:24:52.638Z,11.90
2022-09-22T05:27:47.331Z,11.80
2022-09-22T05:30:38.734Z,11.80
2022-09-22T05:33:30.732Z,11.70
2022-09-22T05:36:22.133Z,11.80
2022-09-22T05:39:13.906Z,11.80
2022-09-22T05:42:10.307Z,11.80
2022-09-22T05:44:58.644Z,11.80
2022-09-22T05:50:28.473Z,11.90
2022-09-22T05:53:19.814Z,12.00
2022-09-22T05:56:11.292Z,12.10
2022-09-22T05:59:02.344Z,12.00
2022-09-22T06:01:57.456Z,12.00
2022-09-22T06:04:49.224Z,11.90
2022-09-22T06:07:39.280Z,11.90
2022-09-22T06:13:22.509Z,11.90
2022-09-22T06:16:14.009Z,11.90
2022-09-22T06:19:06.154Z,11.90
2022-09-22T06:24:37.913Z,12.00
2022-09-22T06:27:29.178Z,12.00
2022-09-22T06:32:59.518Z,12.00
2022-09-22T06:35:51.038Z,12.00
2022-09-22T06:38:42.468Z,12.00
2022-09-22T06:41:35.201Z,12.00
2022-09-22T06:44:27.503Z,12.00
2022-09-22T06:47:18.585Z,12.00
2022-09-22T06:52:49.066Z,12.00
2022-09-22T06:55:41.742Z,12.00
2022-09-22T06:58:52.466Z,12.00
2022-09-22T07:01:29.060Z,12.10
2022-09-22T07:04:22.262Z,12.10
2022-09-22T07:07:13.804Z,12.20
2022-09-22T07:10:05.938Z,12.30
2022-09-22T07:13:00.603Z,12.30
2022-09-22T07:15:52.127Z,12.40
2022-09-22T07:18:45.489Z,12.50
2022-09-22T07:21:38.330Z,12.60
2022-09-22T07:24:30.167Z,12.60
2022-09-22T07:27:23.056Z,12.70
2022-09-22T07:30:15.844Z,12.80
2022-09-22T07:33:07.629Z,12.90
2022-09-22T07:36:09.241Z,13.00
2022-09-22T07:39:07.068Z,13.10
2022-09-22T07:41:58.781Z,13.20
2022-09-22T07:45:07.907Z,13.20
2022-09-22T07:48:17.032Z,13.20
2022-09-22T07:51:15.724Z,13.30
2022-09-22T07:54:05.192Z,13.50
2022-09-22T07:56:59.255Z,13.60
2022-09-22T07:59:50.903Z,13.60
2022-09-22T08:02:41.990Z,13.70
2022-09-22T08:08:12.909Z,13.90
2022-09-22T08:11:09.275Z,14.00
2022-09-22T08:14:02.185Z,14.10
2022-09-22T08:16:54.322Z,14.20
2022-09-22T08:19:46.129Z,14.20
2022-09-22T08:22:37.995Z,14.30
2022-09-22T08:25:29.756Z,14.40
2022-09-22T08:28:20.844Z,14.40
2022-09-22T08:33:57.809Z,14.60
2022-09-22T08:36:49.313Z,14.80
2022-09-22T08:39:40.542Z,14.90
2022-09-22T08:42:32.299Z,14.90
2022-09-22T08:45:31.215Z,15.00
2022-09-22T08:48:42.663Z,15.00
2022-09-22T08:51:55.635Z,15.10
2022-09-22T08:54:47.236Z,15.20
2022-09-22T08:57:59.560Z,15.20
2022-09-22T09:00:55.444Z,15.30
2022-09-22T09:03:56.174Z,15.40
2022-09-22T09:06:51.537Z,15.50
2022-09-22T09:09:50.611Z,15.50
2022-09-22T09:12:56.007Z,15.60
2022-09-22T09:15:55.811Z,15.70
2022-09-22T09:18:49.902Z,15.70
2022-09-22T09:21:44.408Z,15.80
2022-09-22T09:27:32.868Z,16.00
2022-09-22T09:30:24.975Z,16.00
2022-09-22T09:36:04.051Z,16.10
2022-09-22T09:38:57.674Z,16.20
2022-09-22T09:41:51.056Z,16.30
2022-09-22T09:44:43.826Z,16.40
2022-09-22T09:47:51.873Z,16.40
2022-09-22T09:50:43.339Z,16.50
2022-09-22T09:53:41.077Z,16.60
2022-09-22T09:56:31.760Z,16.70
2022-09-22T09:59:45.256Z,16.70
2022-09-22T10:02:39.589Z,16.80
2022-09-22T10:08:23.706Z,16.90
2022-09-22T10:13:56.875Z,17.10
2022-09-22T10:16:54.653Z,17.20
2022-09-22T10:19:46.544Z,17.30
2022-09-22T10:22:39.888Z,17.30
2022-09-22T10:25:32.801Z,17.40
2022-09-22T10:28:25.698Z,17.40
2022-09-22T10:31:25.258Z,17.30
2022-09-22T10:34:31.750Z,17.40
2022-09-22T10:40:14.012Z,17.40
2022-09-22T10:43:07.557Z,17.60
2022-09-22T10:46:03.660Z,17.60
2022-09-22T10:48:58.761Z,17.70
2022-09-22T10:51:58.269Z,17.70
2022-09-22T10:55:15.311Z,17.80
2022-09-22T10:58:42.943Z,17.90
2022-09-22T11:01:47.353Z,18.00
2022-09-22T11:04:54.519Z,18.10
2022-09-22T11:08:17.596Z,18.10
2022-09-22T11:11:32.697Z,18.30
2022-09-22T11:14:31.870Z,18.30
2022-09-22T11:17:34.962Z,18.40
2022-09-22T11:23:38.149Z,18.50
2022-09-22T11:26:43.912Z,18.50
2022-09-22T11:30:20.109Z,18.60
2022-09-22T11:33:22.012Z,18.70
2022-09-22T11:39:12.379Z,18.90
2022-09-22T11:44:54.037Z,19.00
2022-09-22T11:50:49.468Z,19.10
2022-09-22T11:56:45.983Z,19.40
2022-09-22T11:59:41.508Z,19.40
2022-09-22T12:02:36.756Z,19.50
2022-09-22T12:08:12.219Z,19.90
2022-09-22T12:11:06.100Z,20.10
2022-09-22T12:14:01.011Z,20.30
2022-09-22T12:16:55.843Z,20.30
2022-09-22T12:19:53.769Z,20.40
2022-09-22T12:22:54.073Z,20.50
2022-09-22T12:25:51.702Z,20.60
2022-09-22T12:28:45.661Z,20.70
2022-09-22T12:31:40.104Z,20.80
2022-09-22T12:34:35.253Z,20.80
2022-09-22T12:37:31.136Z,20.90
2022-09-22T12:40:27.857Z,21.00
2022-09-22T12:43:22.415Z,20.90
2022-09-22T12:48:55.145Z,21.20
2022-09-22T12:51:46.761Z,21.20
2022-09-22T12:54:41.387Z,21.20
2022-09-22T12:57:35.217Z,21.20
2022-09-22T13:00:32.853Z,21.30
2022-09-22T13:03:50.040Z,21.40
2022-09-22T13:07:31.423Z,21.40
2022-09-22T13:10:52.833Z,21.40
2022-09-22T13:13:45.983Z,21.40
2022-09-22T13:16:38.755Z,21.50
2022-09-22T13:19:30.451Z,21.50
2022-09-22T13:22:22.539Z,21.50
2022-09-22T13:25:22.273Z,21.60
2022-09-22T13:28:16.696Z,21.70
2022-09-22T13:31:14.493Z,21.70
2022-09-22T13:34:18.615Z,21.80
2022-09-22T13:37:13.636Z,21.90
2022-09-22T13:40:05.722Z,21.90
2022-09-22T13:43:00.881Z,21.90
2022-09-22T13:46:05.420Z,21.80
2022-09-22T13:48:59.995Z,21.90
2022-09-22T13:51:56.090Z,22.00
2022-09-22T13:54:50.295Z,22.00
2022-09-22T13:57:52.640Z,22.00
2022-09-22T14:01:11.591Z,22.10
2022-09-22T14:03:39.945Z,22.10
2022-09-22T14:06:33.990Z,22.10
2022-09-22T14:09:25.666Z,22.20
2022-09-22T14:12:20.546Z,22.90
2022-09-22T14:15:42.970Z,23.70
2022-09-22T14:18:37.298Z,24.30
2022-09-22T14:21:28.916Z,24.60
2022-09-22T14:24:21.021Z,24.70
2022-09-22T14:27:21.666Z,24.80
2022-09-22T14:30:19.940Z,24.80
2022-09-22T14:33:17.902Z,25.10
2022-09-22T14:36:14.748Z,25.30
2022-09-22T14:39:10.527Z,25.30
2022-09-22T14:42:01.558Z,25.40
2022-09-22T14:44:57.939Z,25.60
2022-09-22T14:47:50.025Z,25.70
2022-09-22T14:50:45.439Z,25.40
2022-09-22T14:53:41.489Z,25.70
2022-09-22T14:56:35.076Z,25.90
2022-09-22T14:59:44.038Z,26.00
2022-09-22T15:02:40.530Z,26.10
2022-09-22T15:05:34.013Z,26.40
2022-09-22T15:08:28.405Z,26.60
2022-09-22T15:11:20.055Z,26.50
2022-09-22T15:14:29.556Z,26.60
2022-09-22T15:17:58.827Z,26.60
2022-09-22T15:20:53.323Z,26.30
2022-09-22T15:23:47.630Z,26.60
2022-09-22T15:26:44.753Z,26.90
2022-09-22T15:29:36.298Z,26.90
2022-09-22T15:32:32.000Z,27.00
2022-09-22T15:35:26.794Z,26.70
2022-09-22T15:38:23.703Z,26.60
2022-09-22T15:41:16.962Z,27.20
2022-09-22T15:44:11.323Z,27.10
2022-09-22T15:47:02.931Z,26.80
2022-09-22T15:49:54.973Z,27.10
2022-09-22T15:52:46.851Z,27.00
2022-09-22T15:55:38.293Z,26.90
2022-09-22T15:58:33.892Z,27.40
2022-09-22T16:01:26.267Z,27.60
2022-09-22T16:07:09.014Z,28.20
2022-09-22T16:10:00.114Z,27.80
2022-09-22T16:12:51.843Z,27.20
2022-09-22T16:15:43.227Z,27.00
2022-09-22T16:18:36.513Z,27.20
2022-09-22T16:21:30.304Z,27.10
2022-09-22T16:24:22.903Z,27.20
2022-09-22T16:27:14.476Z,26.60
2022-09-22T16:30:06.780Z,26.40
2022-09-22T16:32:58.213Z,26.00
2022-09-22T16:35:50.042Z,25.50
2022-09-22T16:38:41.939Z,24.80
2022-09-22T16:41:35.385Z,24.20
2022-09-22T16:44:27.159Z,23.70
2022-09-22T16:47:20.851Z,23.20
2022-09-22T16:50:12.686Z,22.90
2022-09-22T16:55:50.691Z,22.10
2022-09-22T16:58:42.279Z,21.90
2022-09-22T17:01:36.664Z,21.70
2022-09-22T17:04:27.921Z,21.50
2022-09-22T17:07:19.403Z,21.40
2022-09-22T17:10:13.884Z,21.20
2022-09-22T17:13:05.691Z,21.00
2022-09-22T17:16:09.044Z,21.00
2022-09-22T17:19:03.348Z,20.80
2022-09-22T17:21:56.399Z,20.70
2022-09-22T17:24:47.693Z,20.60
2022-09-22T17:27:39.036Z,20.50
2022-09-22T17:30:30.735Z,20.40
2022-09-22T17:33:22.416Z,20.20
2022-09-22T17:36:17.610Z,20.10
2022-09-22T17:39:10.796Z,20.00
2022-09-22T17:42:02.417Z,19.90
2022-09-22T17:44:56.166Z,19.80
2022-09-22T17:48:05.285Z,19.70
2022-09-22T17:51:14.403Z,19.70
2022-09-22T17:54:23.780Z,19.60
2022-09-22T17:57:16.414Z,19.50
2022-09-22T18:02:49.615Z,19.20
2022-09-22T18:05:42.726Z,19.10
2022-09-22T18:08:34.212Z,18.90
2022-09-22T18:11:27.229Z,18.80
2022-09-22T18:14:18.872Z,18.80
2022-09-22T18:19:49.399Z,18.70
2022-09-22T18:22:41.436Z,18.60
2022-09-22T18:25:34.162Z,18.60
2022-09-22T18:28:25.752Z,18.50
2022-09-22T18:31:27.769Z,18.50
2022-09-22T18:34:19.005Z,18.50
2022-09-22T18:37:13.306Z,18.40
2022-09-22T18:40:12.017Z,18.40
2022-09-22T18:43:03.891Z,18.20
2022-09-22T18:45:55.360Z,18.10
2022-09-22T18:48:47.952Z,18.10
2022-09-22T18:51:41.960Z,18.10
2022-09-22T18:54:33.419Z,18.10
2022-09-22T18:57:25.652Z,18.00
2022-09-22T19:03:00.488Z,17.90
2022-09-22T19:05:52.079Z,17.90
2022-09-22T19:08:44.017Z,17.90
2022-09-22T19:11:35.819Z,17.80
2022-09-22T19:14:27.780Z,17.80
2022-09-22T19:17:20.236Z,17.70
2022-09-22T19:20:14.774Z,17.70
2022-09-22T19:23:07.407Z,17.60
2022-09-22T19:25:58.779Z,17.40
2022-09-22T19:28:50.448Z,17.40
2022-09-22T19:31:43.749Z,17.40
2022-09-22T19:34:34.976Z,17.40
2022-09-22T19:37:28.061Z,17.40
2022-09-22T19:40:19.524Z,17.30
2022-09-22T19:43:10.930Z,17.20
2022-09-22T19:46:02.921Z,17.10
2022-09-22T19:48:54.818Z,17.00
2022-09-22T19:51:46.813Z,17.00
2022-09-22T19:54:38.127Z,16.90
2022-09-22T19:57:29.332Z,16.80
2022-09-22T20:00:23.140Z,16.80
2022-09-22T20:03:15.022Z,16.70
2022-09-22T20:06:07.103Z,16.60
2022-09-22T20:09:01.716Z,16.50
2022-09-22T20:11:53.226Z,16.50
2022-09-22T20:14:44.927Z,16.50
2022-09-22T20:17:36.491Z,16.50
2022-09-22T20:20:28.782Z,16.50
2022-09-22T20:23:21.880Z,16.50
2022-09-22T20:26:31.196Z,16.40
2022-09-22T20:29:23.668Z,16.40
2022-09-22T20:32:15.099Z,16.40
2022-09-22T20:37:44.388Z,16.30
2022-09-22T20:40:37.599Z,16.30
2022-09-22T20:43:29.554Z,16.30
2022-09-22T20:49:06.574Z,16.20
2022-09-22T20:54:38.329Z,16.20
2022-09-22T21:00:15.720Z,16.10
2022-09-22T21:03:07.258Z,16.00
2022-09-22T21:06:02.292Z,16.00
2022-09-22T21:09:12.110Z,15.90
2022-09-22T21:12:03.976Z,15.90
2022-09-22T21:17:35.549Z,15.90
2022-09-22T21:20:27.295Z,15.80
2022-09-22T21:23:18.932Z,15.90
2022-09-22T21:28:55.303Z,15.80
2022-09-22T21:31:47.539Z,15.90
2022-09-22T21:34:39.545Z,15.80
2022-09-22T21:37:31.484Z,15.70
2022-09-22T21:43:04.691Z,15.70
2022-09-22T21:46:04.971Z,15.60
2022-09-22T21:48:55.374Z,15.60
2022-09-22T21:51:47.566Z,15.60
2022-09-22T21:54:38.747Z,15.50
2022-09-22T22:00:10.679Z,15.50
2022-09-22T22:03:23.105Z,15.40
2022-09-22T22:06:16.532Z,15.30
2022-09-22T22:09:10.472Z,15.30
2022-09-22T22:14:46.420Z,15.30
2022-09-22T22:17:37.950Z,15.30
2022-09-22T22:20:30.272Z,15.30
2022-09-22T22:23:21.453Z,15.30
2022-09-22T22:26:14.680Z,15.30
2022-09-22T22:29:22.317Z,15.20
2022-09-22T22:32:13.799Z,15.20
2022-09-22T22:35:06.833Z,15.10
2022-09-22T22:37:58.367Z,15.10
2022-09-22T22:40:50.423Z,15.00
2022-09-22T22:43:42.476Z,14.90
2022-09-22T22:47:20.976Z,14.90
2022-09-22T22:53:32.619Z,14.80
2022-09-22T22:56:26.848Z,14.70
2022-09-22T22:59:25.857Z,14.70
2022-09-22T23:02:22.313Z,14.70
2022-09-22T23:05:13.525Z,14.60
2022-09-22T23:08:05.829Z,14.50
2022-09-22T23:11:04.735Z,14.50
2022-09-22T23:13:59.648Z,14.50
2022-09-22T23:16:51.935Z,14.50
2022-09-22T23:19:43.101Z,14.50
2022-09-22T23:22:35.563Z,14.40
2022-09-22T23:25:27.452Z,14.40
2022-09-22T23:28:43.570Z,14.30
2022-09-22T23:31:23.562Z,14.30
2022-09-22T23:34:15.111Z,14.30
2022-09-22T23:39:47.411Z,14.10
2022-09-22T23:42:40.811Z,14.00
2022-09-22T23:48:11.525Z,14.00
2022-09-22T23:53:42.485Z,13.90
2022-09-22T23:56:33.944Z,13.90
2022-09-22T23:59:24.985Z,13.80
